Time;durP1;ratioP1;P1;durP2;ratioP2;P2;SDS_P1;SDS_P2;PMS_P1;PMS_P2;Temp;Humidity;BMP_temperature;BMP_pressure;BME280_temperature;BME280_humidity;BME280_pressure;Samples;Min_cycle;Max_cycle;Signal;HPM_P1;HPM_P2
2023/05/01 00:00:34;;;;;;;1.70;1.70;;;19.30;67.50;;;;;;5052082;28;44201;-75
2023/05/01 00:03:02;;;;;;;1.77;1.77;;;19.30;67.50;;;;;;5054475;28;43453;-74
2023/05/01 00:05:30;;;;;;;1.70;1.70;;;19.30;67.90;;;;;;5046897;28;46113;-75
2023/05/01 00:07:58;;;;;;;1.73;1.73;;;19.30;67.70;;;;;;5050082;28;43723;-75
2023/05/01 00:10:26;;;;;;;1.80;1.80;;;19.30;67.60;;;;;;5044556;28;43610;-75
2023/05/01 00:12:54;;;;;;;1.60;1.60;;;19.30;67.60;;;;;;5043859;28;43619;-75
2023/05/01 00:15:22;;;;;;;1.80;1.80;;;19.20;67.60;;;;;;5044995;28;45135;-75
2023/05/01 00:17:52;;;;;;;1.83;1.70;;;19.20;68.00;;;;;;5047848;28;45310;-75
2023/05/01 00:20:20;;;;;;;1.80;1.80;;;19.30;68.00;;;;;;5053221;28;43442;-74
2023/05/01 00:22:48;;;;;;;1.80;1.80;;;19.40;67.80;;;;;;5049793;28;43529;-74
2023/05/01 00:25:16;;;;;;;1.60;1.60;;;19.50;67.50;;;;;;5045378;28;44022;-74
2023/05/01 00:27:44;;;;;;;1.87;1.87;;;19.60;67.10;;;;;;5050484;28;43481;-75
2023/05/01 00:30:12;;;;;;;1.70;1.70;;;19.60;66.90;;;;;;5047091;28;43417;-75
2023/05/01 00:32:40;;;;;;;1.97;1.97;;;19.60;66.90;;;;;;5045454;28;43433;-74
2023/05/01 00:35:11;;;;;;;1.90;1.90;;;19.50;66.90;;;;;;5049896;28;45505;-74
2023/05/01 00:37:39;;;;;;;1.90;1.90;;;19.50;67.00;;;;;;5046539;28;44320;-72
2023/05/01 00:40:08;;;;;;;1.83;1.83;;;19.40;67.20;;;;;;5049701;28;43621;-75
2023/05/01 00:42:38;;;;;;;2.00;2.00;;;19.30;67.60;;;;;;5046226;28;43487;-75
2023/05/01 00:45:07;;;;;;;1.90;1.90;;;19.30;67.60;;;;;;5049021;28;46176;-74
2023/05/01 00:47:35;;;;;;;1.90;1.90;;;19.30;67.60;;;;;;5054891;28;43454;-75
2023/05/01 00:50:03;;;;;;;1.90;1.90;;;19.30;67.60;;;;;;5046339;28;44020;-72
2023/05/01 00:52:33;;;;;;;2.00;2.00;;;19.30;67.60;;;;;;5047838;28;43447;-73
2023/05/01 00:55:01;;;;;;;2.07;2.07;;;19.20;67.80;;;;;;5056882;28;45821;-74
2023/05/01 00:57:31;;;;;;;1.97;1.97;;;19.20;67.80;;;;;;5041843;28;44567;-74
2023/05/01 00:59:59;;;;;;;2.00;2.00;;;19.20;67.70;;;;;;5045414;28;43438;-75
2023/05/01 01:02:27;;;;;;;1.90;1.90;;;19.20;67.70;;;;;;5054558;28;43421;-70
2023/05/01 01:04:55;;;;;;;2.10;2.10;;;19.20;67.80;;;;;;5048157;28;43800;-70
2023/05/01 01:07:27;;;;;;;2.00;2.00;;;19.20;67.90;;;;;;5058236;28;43500;-70
2023/05/01 01:10:04;;;;;;;1.90;1.90;;;19.20;68.00;;;;;;5050891;28;43397;-71
2023/05/01 01:12:34;;;;;;;2.10;2.10;;;19.30;67.90;;;;;;5049969;28;43985;-71
2023/05/01 01:15:07;;;;;;;2.10;2.00;;;19.40;67.70;;;;;;5048247;28;45608;-71
2023/05/01 01:17:37;;;;;;;2.33;2.33;;;19.50;67.20;;;;;;5046264;28;43468;-70
2023/05/01 01:20:26;;;;;;;1.90;1.90;;;19.60;67.10;;;;;;5047925;28;43524;-70
2023/05/01 01:23:01;;;;;;;2.20;2.10;;;19.50;66.80;;;;;;5047625;28;43412;-70
2023/05/01 01:26:12;;;;;;;2.10;2.10;;;19.50;66.80;;;;;;5052924;28;43944;-69
2023/05/01 01:29:13;;;;;;;2.20;2.20;;;19.40;66.90;;;;;;5048480;28;43490;-70
2023/05/01 01:31:47;;;;;;;2.40;2.40;;;19.30;67.20;;;;;;5050028;28;43387;-71
2023/05/01 01:34:17;;;;;;;2.33;2.33;;;19.30;67.60;;;;;;5053062;28;43472;-71
2023/05/01 01:36:49;;;;;;;2.30;2.30;;;19.30;67.50;;;;;;5046761;28;45903;-71
2023/05/01 01:39:24;;;;;;;2.00;2.00;;;19.30;67.60;;;;;;5051843;28;45005;-71
2023/05/01 01:41:53;;;;;;;2.43;2.43;;;19.30;67.60;;;;;;5045278;28;43375;-71
2023/05/01 01:44:24;;;;;;;2.30;2.30;;;19.20;67.60;;;;;;5052915;28;44074;-71
2023/05/01 01:46:52;;;;;;;2.03;2.03;;;19.20;67.90;;;;;;5045621;28;43726;-71
2023/05/01 01:49:23;;;;;;;2.10;2.10;;;19.20;67.60;;;;;;5047145;28;44974;-71
2023/05/01 01:51:51;;;;;;;2.20;2.20;;;19.20;67.60;;;;;;5048883;28;43495;-71
2023/05/01 01:54:21;;;;;;;2.10;2.10;;;19.20;67.70;;;;;;5070371;28;43491;-71
2023/05/01 01:56:50;;;;;;;2.37;2.37;;;19.20;67.80;;;;;;5047515;28;46945;-71
2023/05/01 01:59:18;;;;;;;2.40;2.40;;;19.20;68.00;;;;;;5048274;28;44450;-71
2023/05/01 02:01:45;;;;;;;2.43;2.43;;;19.20;67.90;;;;;;5046899;28;43476;-70
2023/05/01 02:04:13;;;;;;;2.20;2.20;;;19.30;67.70;;;;;;5051051;28;43447;-71
2023/05/01 02:06:43;;;;;;;2.10;2.10;;;19.40;67.40;;;;;;5048317;28;45938;-71
2023/05/01 02:09:11;;;;;;;2.27;2.27;;;19.50;66.90;;;;;;5048585;28;43483;-71
2023/05/01 02:11:42;;;;;;;2.40;2.40;;;19.60;66.90;;;;;;5044296;28;43797;-71
2023/05/01 02:14:10;;;;;;;2.10;2.10;;;19.50;66.70;;;;;;5051817;28;43387;-71
2023/05/01 02:16:39;;;;;;;2.40;2.40;;;19.50;66.80;;;;;;5051770;28;45426;-71
2023/05/01 02:19:07;;;;;;;2.10;2.10;;;19.40;67.00;;;;;;5064317;28;45318;-71
2023/05/01 02:21:35;;;;;;;2.30;2.30;;;19.30;67.10;;;;;;5045750;28;43624;-71
2023/05/01 02:24:05;;;;;;;2.30;2.30;;;19.30;67.60;;;;;;5044660;28;43622;-71
2023/05/01 02:26:34;;;;;;;2.50;2.40;;;19.30;67.60;;;;;;5046289;28;44364;-71
2023/05/01 02:29:03;;;;;;;2.43;2.33;;;19.30;67.60;;;;;;5044751;28;44846;-71
2023/05/01 02:31:30;;;;;;;2.20;2.20;;;19.30;67.60;;;;;;5046261;28;43451;-71
2023/05/01 02:33:58;;;;;;;2.20;2.20;;;19.20;67.50;;;;;;5047094;28;43576;-71
2023/05/01 02:36:27;;;;;;;2.27;2.17;;;19.20;67.60;;;;;;5048346;28;43734;-71
2023/05/01 02:38:55;;;;;;;2.10;2.10;;;19.20;67.80;;;;;;5047098;28;43649;-71
2023/05/01 02:41:25;;;;;;;2.30;2.30;;;19.20;67.70;;;;;;5048709;28;43459;-71
2023/05/01 02:43:55;;;;;;;2.43;2.43;;;19.30;67.60;;;;;;5048597;28;43450;-71
2023/05/01 02:46:26;;;;;;;2.40;2.40;;;19.40;67.40;;;;;;5061267;28;44073;-71
2023/05/01 02:48:54;;;;;;;2.10;2.10;;;19.40;67.20;;;;;;5052895;28;44424;-71
2023/05/01 02:51:22;;;;;;;2.47;2.47;;;19.30;67.30;;;;;;5054358;28;43399;-71
2023/05/01 02:53:50;;;;;;;2.30;2.30;;;19.30;67.40;;;;;;5053938;28;43658;-71
2023/05/01 02:56:21;;;;;;;2.20;2.20;;;19.30;67.30;;;;;;5050999;28;46132;-71
2023/05/01 02:58:52;;;;;;;2.00;2.00;;;19.30;67.30;;;;;;5058503;28;43343;-70
2023/05/01 03:01:20;;;;;;;2.17;2.17;;;19.30;67.40;;;;;;5050555;28;43822;-71
2023/05/01 03:03:48;;;;;;;2.30;2.30;;;19.20;67.50;;;;;;5053753;28;43522;-71
2023/05/01 03:06:18;;;;;;;2.03;2.03;;;19.20;67.70;;;;;;5051452;28;43657;-70
2023/05/01 03:08:46;;;;;;;2.40;2.40;;;19.20;67.50;;;;;;5052334;28;43659;-71
2023/05/01 03:11:14;;;;;;;2.60;2.50;;;19.20;67.50;;;;;;5053634;28;43388;-71
2023/05/01 03:13:42;;;;;;;2.10;2.10;;;19.20;67.50;;;;;;5067242;28;43628;-71
2023/05/01 03:16:11;;;;;;;2.10;2.10;;;19.20;67.80;;;;;;5068916;28;43885;-70
2023/05/01 03:18:39;;;;;;;2.17;2.17;;;19.10;67.80;;;;;;5059926;28;43351;-70
2023/05/01 03:21:08;;;;;;;2.30;2.30;;;19.20;67.90;;;;;;5057996;28;43422;-71
2023/05/01 03:23:37;;;;;;;1.90;1.90;;;19.20;67.70;;;;;;5048346;28;43451;-71
2023/05/01 03:26:06;;;;;;;2.03;2.03;;;19.30;67.40;;;;;;5053311;28;43924;-70
2023/05/01 03:28:34;;;;;;;2.07;2.07;;;19.40;67.00;;;;;;5052109;28;43506;-70
2023/05/01 03:31:02;;;;;;;2.30;2.30;;;19.50;66.90;;;;;;5073151;28;44068;-70
2023/05/01 03:33:33;;;;;;;2.10;2.10;;;19.50;66.80;;;;;;5050796;28;43572;-70
2023/05/01 03:36:02;;;;;;;2.20;2.20;;;19.40;66.90;;;;;;5052715;28;43812;-70
2023/05/01 03:38:31;;;;;;;2.10;2.10;;;19.40;67.10;;;;;;5047995;28;43646;-70
2023/05/01 03:41:11;;;;;;;2.00;2.00;;;19.30;67.20;;;;;;5046168;28;43504;-71
2023/05/01 03:44:06;;;;;;;2.30;2.30;;;19.30;67.50;;;;;;5049914;28;43491;-70
2023/05/01 03:46:43;;;;;;;2.00;2.00;;;19.20;67.50;;;;;;5048975;28;45759;-70
2023/05/01 03:49:19;;;;;;;2.10;2.10;;;19.20;67.50;;;;;;5053203;28;44599;-70
2023/05/01 03:51:48;;;;;;;1.83;1.83;;;19.20;67.50;;;;;;5051204;28;43389;-70
2023/05/01 03:54:16;;;;;;;2.10;2.10;;;19.20;67.60;;;;;;5054892;28;44646;-70
2023/05/01 03:56:57;;;;;;;2.17;2.17;;;19.10;67.80;;;;;;5044520;28;46109;-70
2023/05/01 03:59:25;;;;;;;2.13;2.13;;;19.10;67.80;;;;;;5044230;28;43495;-70
2023/05/01 04:01:53;;;;;;;2.10;2.10;;;19.20;67.50;;;;;;5048772;28;43384;-70
2023/05/01 04:04:24;;;;;;;1.80;1.80;;;19.10;67.50;;;;;;5057000;28;43445;-70
2023/05/01 04:06:56;;;;;;;1.90;1.90;;;19.10;67.60;;;;;;5047369;28;46119;-70
2023/05/01 04:09:25;;;;;;;1.87;1.87;;;19.10;67.80;;;;;;5056570;28;45148;-70
2023/05/01 04:11:53;;;;;;;2.00;2.00;;;19.10;67.90;;;;;;5046612;28;43508;-70
2023/05/01 04:14:22;;;;;;;2.00;2.00;;;19.20;67.80;;;;;;5052676;28;43441;-70
2023/05/01 04:16:50;;;;;;;2.10;2.10;;;19.30;67.60;;;;;;5054413;28;46034;-70
2023/05/01 04:19:18;;;;;;;1.83;1.83;;;19.40;67.80;;;;;;5046589;28;45012;-70
2023/05/01 04:21:53;;;;;;;2.03;2.03;;;19.50;66.90;;;;;;5046474;28;43527;-70
2023/05/01 04:24:21;;;;;;;2.00;1.90;;;19.50;66.60;;;;;;5051681;28;44067;-70
2023/05/01 04:26:49;;;;;;;2.40;2.30;;;19.50;66.60;;;;;;5053008;28;43960;-70
2023/05/01 04:29:17;;;;;;;2.27;2.20;;;19.40;66.80;;;;;;5053033;28;45033;-70
2023/05/01 04:31:45;;;;;;;2.90;2.70;;;19.40;67.00;;;;;;5066329;28;43437;-70
2023/05/01 04:34:13;;;;;;;4.60;3.23;;;19.30;68.00;;;;;;5057238;28;43476;-70
2023/05/01 04:36:48;;;;;;;5.50;3.80;;;19.20;67.50;;;;;;5049424;28;43845;-70
2023/05/01 04:39:18;;;;;;;4.80;3.63;;;19.20;68.20;;;;;;5048397;28;44943;-70
2023/05/01 04:41:46;;;;;;;4.70;4.00;;;19.20;67.50;;;;;;5054330;28;43471;-70
2023/05/01 04:44:14;;;;;;;7.37;4.83;;;19.20;68.20;;;;;;5055779;28;43422;-70
2023/05/01 04:46:42;;;;;;;14.33;6.00;;;19.20;67.60;;;;;;5054906;28;43690;-70
2023/05/01 04:49:11;;;;;;;11.33;6.00;;;19.20;68.60;;;;;;5054837;28;43489;-70
2023/05/01 04:51:39;;;;;;;14.50;7.23;;;19.20;67.90;;;;;;5049522;28;44731;-70
2023/05/01 04:54:11;;;;;;;13.33;6.37;;;19.20;67.80;;;;;;5052696;28;43808;-70
2023/05/01 04:56:41;;;;;;;13.73;6.60;;;19.10;67.70;;;;;;5051130;28;43810;-70
2023/05/01 04:59:09;;;;;;;18.07;7.77;;;19.10;67.80;;;;;;5051189;28;43454;-69
2023/05/01 05:01:37;;;;;;;19.30;9.13;;;19.10;67.90;;;;;;5046898;28;43517;-70
2023/05/01 05:04:05;;;;;;;19.17;8.20;;;19.10;67.90;;;;;;5042045;28;44439;-70
2023/05/01 05:06:33;;;;;;;17.77;8.60;;;19.10;68.40;;;;;;5046369;28;45226;-69
2023/05/01 05:09:01;;;;;;;18.57;8.70;;;19.10;67.60;;;;;;5048393;28;44894;-69
2023/05/01 05:11:32;;;;;;;23.80;10.30;;;19.10;67.70;;;;;;5048592;28;43539;-70
2023/05/01 05:14:08;;;;;;;25.77;10.40;;;19.10;67.90;;;;;;5056379;28;43610;-70
2023/05/01 05:16:37;;;;;;;28.13;10.93;;;19.10;68.00;;;;;;5049137;28;45520;-70
2023/05/01 05:19:05;;;;;;;22.83;10.00;;;19.20;68.70;;;;;;5051287;28;43609;-70
2023/05/01 05:21:37;;;;;;;25.73;10.80;;;19.30;67.60;;;;;;5053100;28;43443;-70
2023/05/01 05:24:05;;;;;;;23.90;10.67;;;19.40;67.30;;;;;;5053168;28;43502;-70
2023/05/01 05:26:33;;;;;;;24.20;10.73;;;19.50;66.90;;;;;;5051122;28;45509;-70
2023/05/01 05:29:04;;;;;;;28.80;11.47;;;19.50;66.70;;;;;;5048931;28;43496;-70
2023/05/01 05:31:32;;;;;;;23.93;10.80;;;19.50;66.60;;;;;;5053212;28;43425;-70
2023/05/01 05:34:01;;;;;;;24.33;11.50;;;19.40;66.60;;;;;;5051273;28;43401;-70
2023/05/01 05:36:29;;;;;;;28.60;12.30;;;19.40;66.90;;;;;;5051651;28;45168;-70
2023/05/01 05:38:59;;;;;;;28.57;12.13;;;19.30;67.10;;;;;;5050467;28;44095;-70
2023/05/01 05:41:26;;;;;;;30.17;12.60;;;19.30;67.60;;;;;;5057576;28;44019;-70
2023/05/01 05:43:58;;;;;;;24.40;11.97;;;19.20;67.40;;;;;;5048748;28;43589;-71
2023/05/01 05:46:28;;;;;;;22.57;11.17;;;19.20;67.30;;;;;;5053234;28;45854;-71
2023/05/01 05:48:56;;;;;;;26.10;11.83;;;19.20;67.50;;;;;;5049922;28;44125;-71
2023/05/01 05:51:26;;;;;;;23.70;11.50;;;19.20;67.50;;;;;;5053256;28;43354;-71
2023/05/01 05:53:55;;;;;;;27.80;12.27;;;19.10;67.80;;;;;;5056252;28;44031;-71
2023/05/01 05:56:23;;;;;;;27.63;12.17;;;19.20;67.80;;;;;;5054556;28;45832;-71
2023/05/01 05:58:52;;;;;;;24.37;11.93;;;19.20;67.60;;;;;;5047308;28;44406;-71
2023/05/01 06:01:21;;;;;;;25.20;11.87;;;19.20;67.70;;;;;;5048177;28;43453;-70
2023/05/01 06:03:53;;;;;;;31.40;13.67;;;19.10;67.70;;;;;;5052395;28;43451;-70
2023/05/01 06:06:23;;;;;;;33.73;13.60;;;19.10;67.90;;;;;;5048868;28;43845;-71
2023/05/01 06:08:51;;;;;;;28.70;12.90;;;19.10;68.00;;;;;;5047870;28;44684;-70
2023/05/01 06:11:20;;;;;;;33.37;13.73;;;19.20;67.80;;;;;;5052235;28;44108;-70
2023/05/01 06:13:48;;;;;;;28.40;13.10;;;19.30;67.60;;;;;;5054574;28;43475;-70
2023/05/01 06:16:16;;;;;;;28.50;13.43;;;19.50;67.20;;;;;;5044980;28;46078;-70
2023/05/01 06:18:44;;;;;;;29.60;12.40;;;19.50;66.90;;;;;;5049347;28;44859;-70
2023/05/01 06:21:14;;;;;;;29.77;13.13;;;19.50;66.70;;;;;;5045791;28;43820;-69
2023/05/01 06:23:43;;;;;;;28.83;13.10;;;19.50;66.60;;;;;;5060488;28;43516;-70
2023/05/01 06:26:26;;;;;;;26.40;12.40;;;19.40;66.80;;;;;;5050148;28;44983;-70
2023/05/01 06:28:55;;;;;;;27.03;13.63;;;19.30;67.00;;;;;;5067071;28;43684;-70
2023/05/01 06:31:23;;;;;;;26.07;12.53;;;19.30;67.40;;;;;;5060075;28;43984;-70
2023/05/01 06:33:55;;;;;;;25.00;12.50;;;19.30;67.60;;;;;;5056006;28;43614;-70
2023/05/01 06:36:36;;;;;;;29.40;12.30;;;19.30;67.50;;;;;;5057001;28;43859;-71
2023/05/01 06:39:04;;;;;;;25.97;12.73;;;19.20;67.50;;;;;;5064353;28;44894;-70
2023/05/01 06:41:33;;;;;;;30.80;12.97;;;19.20;67.50;;;;;;5052893;28;43591;-70
2023/05/01 06:44:01;;;;;;;27.40;12.60;;;19.20;67.70;;;;;;5050205;28;43407;-70
2023/05/01 06:46:29;;;;;;;28.37;12.77;;;19.20;67.90;;;;;;5053515;28;45854;-70
2023/05/01 06:48:57;;;;;;;30.17;12.97;;;19.20;67.70;;;;;;5054309;28;43462;-70
2023/05/01 06:51:24;;;;;;;26.33;12.90;;;19.20;67.60;;;;;;5060226;28;43445;-70
2023/05/01 06:53:57;;;;;;;26.33;12.83;;;19.10;67.60;;;;;;5052630;28;43600;-70
2023/05/01 06:56:25;;;;;;;27.40;13.07;;;19.10;67.70;;;;;;5047216;28;43913;-71
2023/05/01 06:58:53;;;;;;;26.23;12.50;;;19.10;68.00;;;;;;5054611;28;44830;-71
2023/05/01 07:01:22;;;;;;;27.30;13.07;;;19.10;68.00;;;;;;5062660;28;43462;-71
2023/05/01 07:03:50;;;;;;;27.30;12.10;;;19.20;67.80;;;;;;5054180;28;43467;-71
2023/05/01 07:06:18;;;;;;;25.53;12.50;;;19.30;67.60;;;;;;5064763;28;43604;-71
2023/05/01 07:08:46;;;;;;;26.83;11.83;;;19.40;67.10;;;;;;5065774;28;43479;-70
2023/05/01 07:11:15;;;;;;;23.37;12.23;;;19.50;66.90;;;;;;5054059;28;43409;-71
2023/05/01 07:13:47;;;;;;;27.40;12.33;;;19.50;66.70;;;;;;5054991;28;44227;-71
2023/05/01 07:16:15;;;;;;;20.70;10.97;;;19.40;66.70;;;;;;5058126;28;43626;-71
2023/05/01 07:18:45;;;;;;;21.93;11.20;;;19.30;66.80;;;;;;5062205;28;43415;-71
2023/05/01 07:21:13;;;;;;;20.77;11.67;;;19.30;67.00;;;;;;5055655;28;43426;-71
2023/05/01 07:23:41;;;;;;;20.90;10.70;;;19.30;67.60;;;;;;5053716;28;44013;-71
2023/05/01 07:26:09;;;;;;;20.33;10.00;;;19.20;67.50;;;;;;5052991;28;43844;-70
2023/05/01 07:28:39;;;;;;;20.57;10.57;;;19.20;67.00;;;;;;5054683;28;44150;-71
2023/05/01 07:31:06;;;;;;;19.43;10.57;;;19.20;67.20;;;;;;5057660;28;43417;-71
2023/05/01 07:33:34;;;;;;;19.97;10.53;;;19.20;67.20;;;;;;5059626;28;43444;-71
2023/05/01 07:36:03;;;;;;;18.37;10.13;;;19.20;67.40;;;;;;5064471;28;43758;-71
2023/05/01 07:38:31;;;;;;;17.40;10.47;;;19.10;67.40;;;;;;5057183;28;45215;-71
2023/05/01 07:40:59;;;;;;;17.13;9.87;;;19.10;67.30;;;;;;5053066;28;43365;-71
2023/05/01 07:43:27;;;;;;;17.70;9.03;;;19.10;67.40;;;;;;5063730;28;43469;-71
2023/05/01 07:45:57;;;;;;;14.37;9.27;;;19.10;67.40;;;;;;5064542;28;43972;-71
2023/05/01 07:48:25;;;;;;;16.40;9.33;;;19.10;67.50;;;;;;5061199;28;44639;-71
2023/05/01 07:50:53;;;;;;;17.20;9.57;;;19.10;67.90;;;;;;5054480;28;43469;-71
2023/05/01 07:53:22;;;;;;;16.33;9.33;;;19.10;67.90;;;;;;5065753;28;43469;-71
2023/05/01 07:55:50;;;;;;;17.33;9.43;;;19.20;67.60;;;;;;5053298;28;43595;-71
2023/05/01 07:58:18;;;;;;;16.30;9.37;;;19.30;67.40;;;;;;5058462;28;43375;-71
2023/05/01 08:00:46;;;;;;;17.80;9.43;;;19.50;67.00;;;;;;5054610;28;43905;-71
2023/05/01 08:03:16;;;;;;;13.87;8.30;;;19.50;66.80;;;;;;5048825;28;43455;-71
2023/05/01 08:05:45;;;;;;;14.63;8.50;;;19.50;66.60;;;;;;5054291;28;43710;-71
2023/05/01 08:08:19;;;;;;;15.10;9.03;;;19.40;66.60;;;;;;5059246;28;43530;-71
2023/05/01 08:10:47;;;;;;;14.50;7.83;;;19.40;66.90;;;;;;5069003;28;43540;-71
2023/05/01 08:13:15;;;;;;;15.40;8.83;;;19.30;67.10;;;;;;5056077;28;43525;-71
2023/05/01 08:15:46;;;;;;;13.77;8.17;;;19.20;67.50;;;;;;5067509;28;43845;-71
2023/05/01 08:18:19;;;;;;;13.60;8.50;;;19.20;67.50;;;;;;5052926;28;44036;-70
2023/05/01 08:20:48;;;;;;;11.10;7.60;;;19.20;67.50;;;;;;5054838;28;44213;-70
2023/05/01 08:23:18;;;;;;;13.03;7.43;;;19.20;67.50;;;;;;5060926;28;43293;-70
2023/05/01 08:25:49;;;;;;;12.30;7.90;;;19.20;67.60;;;;;;5061421;28;43971;-70
2023/05/01 08:28:19;;;;;;;15.73;8.43;;;19.10;67.70;;;;;;5066791;28;43425;-70
2023/05/01 08:30:48;;;;;;;9.27;6.83;;;19.10;68.10;;;;;;5060464;28;43415;-70
2023/05/01 08:33:17;;;;;;;9.30;7.17;;;19.10;67.90;;;;;;5056262;28;43469;-70
2023/05/01 08:35:45;;;;;;;10.63;7.07;;;19.10;67.90;;;;;;5064858;28;43742;-69
2023/05/01 08:38:19;;;;;;;8.43;6.67;;;19.10;67.90;;;;;;5062359;28;43423;-70
2023/05/01 08:40:50;;;;;;;9.77;6.80;;;19.10;68.00;;;;;;5058647;28;43394;-70
2023/05/01 08:43:18;;;;;;;9.43;6.70;;;19.10;68.40;;;;;;5060446;28;43487;-70
2023/05/01 08:45:47;;;;;;;9.93;6.53;;;19.10;68.50;;;;;;5068745;28;43909;-70
2023/05/01 08:48:18;;;;;;;10.53;7.03;;;19.20;68.20;;;;;;5052894;28;43563;-70
2023/05/01 08:50:46;;;;;;;7.73;6.40;;;19.30;67.90;;;;;;5067018;28;43481;-70
2023/05/01 08:53:15;;;;;;;8.90;6.73;;;19.40;67.50;;;;;;5062221;28;43533;-70
2023/05/01 08:55:46;;;;;;;7.03;6.27;;;19.50;67.20;;;;;;5067958;28;43861;-70
2023/05/01 08:58:14;;;;;;;9.23;6.40;;;19.50;67.10;;;;;;5061110;28;43438;-69
2023/05/01 09:00:42;;;;;;;10.00;6.97;;;19.50;67.20;;;;;;5061672;28;43427;-71
2023/05/01 09:03:11;;;;;;;8.93;6.37;;;19.40;67.40;;;;;;5065457;28;43454;-70
2023/05/01 09:05:41;;;;;;;9.17;6.90;;;19.30;67.50;;;;;;5062867;28;43845;-71
2023/05/01 09:08:09;;;;;;;7.97;6.33;;;19.30;67.90;;;;;;5053619;28;43398;-71
2023/05/01 09:10:39;;;;;;;8.47;6.10;;;19.30;68.00;;;;;;5050471;28;43453;-71
2023/05/01 09:13:10;;;;;;;6.73;5.70;;;19.20;67.80;;;;;;5057297;28;43972;-71
2023/05/01 09:15:37;;;;;;;8.67;6.27;;;19.20;67.90;;;;;;5051621;28;43857;-71
2023/05/01 09:18:06;;;;;;;11.80;6.53;;;19.20;68.00;;;;;;5062183;28;44772;-71
2023/05/01 09:20:36;;;;;;;7.70;5.73;;;19.20;68.20;;;;;;5057047;28;43415;-71
2023/05/01 09:23:06;;;;;;;6.97;5.53;;;19.20;68.30;;;;;;5064206;28;43507;-71
2023/05/01 09:25:34;;;;;;;6.40;5.37;;;19.20;68.30;;;;;;5053180;28;43769;-71
2023/05/01 09:28:04;;;;;;;6.70;5.60;;;19.20;68.30;;;;;;5058222;28;43868;-70
2023/05/01 09:30:33;;;;;;;7.13;5.93;;;19.20;68.30;;;;;;5062185;28;43902;-71
2023/05/01 09:33:08;;;;;;;5.90;5.40;;;19.10;68.30;;;;;;5061879;28;43377;-71
2023/05/01 09:35:52;;;;;;;6.00;5.40;;;19.10;68.70;;;;;;5060890;28;43854;-70
2023/05/01 09:38:23;;;;;;;6.07;5.37;;;19.20;68.60;;;;;;5048399;28;43741;-70
2023/05/01 09:40:52;;;;;;;6.53;5.77;;;19.30;68.30;;;;;;5055048;28;43483;-70
2023/05/01 09:43:27;;;;;;;5.93;5.37;;;19.40;67.90;;;;;;5054109;28;43511;-70
2023/05/01 09:46:09;;;;;;;7.83;5.53;;;19.40;67.60;;;;;;5055724;28;46060;-70
2023/05/01 09:48:37;;;;;;;5.67;5.10;;;19.40;67.40;;;;;;5058405;28;44716;-70
2023/05/01 09:51:24;;;;;;;5.47;4.97;;;19.40;67.60;;;;;;5051193;28;43999;-70
2023/05/01 09:53:54;;;;;;;6.63;5.40;;;19.30;67.60;;;;;;5051863;28;44108;-70
2023/05/01 09:56:22;;;;;;;6.83;5.33;;;19.30;67.80;;;;;;5051372;28;44068;-70
2023/05/01 09:58:50;;;;;;;5.40;4.90;;;19.20;68.00;;;;;;5059389;28;43403;-70
2023/05/01 10:01:18;;;;;;;5.97;4.77;;;19.20;68.10;;;;;;5058332;28;43418;-70
2023/05/01 10:03:47;;;;;;;5.20;4.70;;;19.20;68.00;;;;;;5052259;28;43504;-70
2023/05/01 10:06:27;;;;;;;6.03;4.60;;;19.20;68.10;;;;;;5068503;28;45916;-71
2023/05/01 10:08:57;;;;;;;5.50;5.00;;;19.20;68.20;;;;;;5051019;28;43448;-70
2023/05/01 10:11:25;;;;;;;5.83;5.13;;;19.10;68.30;;;;;;5055945;28;43484;-71
2023/05/01 10:14:08;;;;;;;5.07;4.57;;;19.10;68.50;;;;;;5058760;28;43546;-71
2023/05/01 10:16:37;;;;;;;4.87;4.47;;;19.20;68.30;;;;;;5051749;28;45064;-71
2023/05/01 10:19:08;;;;;;;4.97;4.57;;;19.30;68.00;;;;;;5060734;28;43435;-71
2023/05/01 10:21:36;;;;;;;5.17;4.73;;;19.30;67.80;;;;;;5063742;28;43422;-71
2023/05/01 10:24:08;;;;;;;4.57;4.27;;;19.30;67.70;;;;;;5061168;28;43595;-71
2023/05/01 10:26:38;;;;;;;4.37;4.07;;;19.30;68.00;;;;;;5058233;28;43606;-71
2023/05/01 10:29:06;;;;;;;4.53;4.13;;;19.30;67.90;;;;;;5051227;28;43399;-71
2023/05/01 10:31:34;;;;;;;4.57;4.20;;;19.30;67.90;;;;;;5060727;28;43808;-70
2023/05/01 10:34:05;;;;;;;4.87;4.47;;;19.20;67.80;;;;;;5060133;28;43417;-71
2023/05/01 10:36:36;;;;;;;5.50;4.50;;;19.20;68.00;;;;;;5062436;28;43924;-71
2023/05/01 10:39:06;;;;;;;4.80;4.30;;;19.20;68.20;;;;;;5053777;28;44742;-71
2023/05/01 10:42:03;;;;;;;5.67;4.23;;;19.20;68.20;;;;;;5048545;28;44273;-71
2023/05/01 10:44:34;;;;;;;4.63;4.23;;;19.20;68.10;;;;;;5048892;28;44637;-70
2023/05/01 10:47:46;;;;;;;4.60;4.20;;;19.20;68.10;;;;;;5046457;28;46241;-70
2023/05/01 10:50:14;;;;;;;4.50;4.20;;;19.20;68.20;;;;;;5052471;28;43702;-70
2023/05/01 10:53:17;;;;;;;4.40;4.10;;;19.10;68.30;;;;;;5048078;28;43757;-70
2023/05/01 10:55:48;;;;;;;4.17;3.87;;;19.10;68.50;;;;;;5051867;28;43522;-70
2023/05/01 10:58:54;;;;;;;4.60;3.97;;;19.20;68.30;;;;;;5052166;28;43826;-70
2023/05/01 11:01:32;;;;;;;4.10;3.80;;;19.30;67.90;;;;;;5035715;28;43537;-71
2023/05/01 11:04:02;;;;;;;4.13;3.83;;;19.40;67.60;;;;;;5048307;28;43560;-71
2023/05/01 11:06:32;;;;;;;4.57;4.17;;;19.40;67.40;;;;;;5048403;28;44136;-71
2023/05/01 11:09:00;;;;;;;3.80;3.53;;;19.40;67.30;;;;;;5048644;28;43914;-71
2023/05/01 11:11:51;;;;;;;3.77;3.53;;;19.40;67.50;;;;;;5051996;28;43562;-71
2023/05/01 11:14:20;;;;;;;4.33;4.10;;;19.30;67.60;;;;;;5045953;28;43478;-71
2023/05/01 11:16:48;;;;;;;4.10;3.80;;;19.20;67.70;;;;;;5062784;28;43992;-70
2023/05/01 11:19:45;;;;;;;3.97;3.77;;;19.20;68.00;;;;;;5056277;28;43700;-70
2023/05/01 11:22:13;;;;;;;4.03;3.73;;;19.20;68.00;;;;;;5052954;28;43410;-71
2023/05/01 11:24:42;;;;;;;3.70;3.40;;;19.20;68.00;;;;;;5055778;28;43842;-71
2023/05/01 11:27:15;;;;;;;3.90;3.70;;;19.20;68.10;;;;;;5053786;28;43478;-71
2023/05/01 11:29:48;;;;;;;3.90;3.63;;;19.10;68.10;;;;;;5054471;28;45773;-70
2023/05/01 11:32:23;;;;;;;3.63;3.43;;;19.10;68.30;;;;;;5051288;28;43525;-70
2023/05/01 11:34:54;;;;;;;3.47;3.27;;;19.10;68.20;;;;;;5051848;28;43468;-71
2023/05/01 11:37:41;;;;;;;3.87;3.57;;;19.10;68.20;;;;;;5046859;28;43848;-71
2023/05/01 11:40:19;;;;;;;3.70;3.40;;;19.10;68.20;;;;;;5048819;28;44237;-71
2023/05/01 11:42:48;;;;;;;3.83;3.53;;;19.10;68.20;;;;;;5056436;28;43520;-71
2023/05/01 11:45:17;;;;;;;3.93;3.43;;;19.10;68.40;;;;;;5050193;28;43926;-71
2023/05/01 11:47:44;;;;;;;3.67;3.33;;;19.10;68.20;;;;;;5059150;28;43973;-71
2023/05/01 11:50:13;;;;;;;5.13;3.47;;;19.20;68.20;;;;;;5049784;28;43679;-71
2023/05/01 11:52:45;;;;;;;10.30;3.60;;;19.30;68.60;;;;;;5071076;28;46117;-70
2023/05/01 11:55:13;;;;;;;4.03;3.57;;;19.40;67.50;;;;;;5051031;28;43572;-71
2023/05/01 11:57:49;;;;;;;3.43;3.23;;;19.40;67.20;;;;;;5051164;28;43430;-71
2023/05/01 12:00:26;;;;;;;3.60;3.40;;;19.40;67.00;;;;;;5057731;28;43935;-71
2023/05/01 12:03:01;;;;;;;3.50;3.37;;;19.40;67.20;;;;;;5053775;28;44580;-71
2023/05/01 12:05:30;;;;;;;3.20;3.00;;;19.40;67.50;;;;;;5052620;28;43981;-71
2023/05/01 12:08:12;;;;;;;3.13;3.03;;;19.30;67.60;;;;;;5055646;28;43546;-71
2023/05/01 12:10:41;;;;;;;3.50;3.30;;;19.20;67.90;;;;;;5054332;28;43905;-71
2023/05/01 12:13:12;;;;;;;4.53;3.20;;;19.30;68.00;;;;;;5043945;28;43499;-70
2023/05/01 12:15:44;;;;;;;3.27;3.07;;;19.20;68.00;;;;;;5049746;28;43554;-70
2023/05/01 12:18:15;;;;;;;3.50;3.30;;;19.20;68.10;;;;;;5052094;28;43940;-71
2023/05/01 12:20:46;;;;;;;3.47;3.20;;;19.20;68.20;;;;;;5048190;28;43903;-71
2023/05/01 12:23:14;;;;;;;3.20;3.10;;;19.10;68.40;;;;;;5053200;28;44717;-71
2023/05/01 12:25:43;;;;;;;4.27;3.43;;;19.10;68.30;;;;;;5050434;28;43411;-71
2023/05/01 12:28:13;;;;;;;3.10;2.93;;;19.20;68.40;;;;;;5054986;28;43516;-71
2023/05/01 12:30:41;;;;;;;3.63;3.33;;;19.20;68.40;;;;;;5046974;28;44934;-71
2023/05/01 12:33:10;;;;;;;3.63;3.33;;;19.20;68.50;;;;;;5052463;28;43495;-70
2023/05/01 12:35:39;;;;;;;4.33;3.93;;;19.10;68.50;;;;;;5057219;28;43476;-71
2023/05/01 12:38:14;;;;;;;4.40;3.67;;;19.20;68.70;;;;;;5048744;28;43643;-71
2023/05/01 12:40:53;;;;;;;3.80;3.50;;;19.20;68.50;;;;;;5047268;28;45182;-71
2023/05/01 12:43:32;;;;;;;3.53;3.33;;;19.40;68.20;;;;;;5048597;28;43532;-70
2023/05/01 12:46:00;;;;;;;3.93;3.70;;;19.50;67.70;;;;;;5045464;28;43585;-70
2023/05/01 12:48:28;;;;;;;4.43;4.03;;;19.50;67.50;;;;;;5048781;28;44331;-71
2023/05/01 12:50:56;;;;;;;4.33;3.93;;;19.50;67.50;;;;;;5046144;28;45967;-71
2023/05/01 12:53:29;;;;;;;4.50;4.20;;;19.40;67.50;;;;;;5046619;28;44969;-71
2023/05/01 12:55:58;;;;;;;4.10;3.80;;;19.40;67.70;;;;;;5047305;28;43968;-70
2023/05/01 12:58:35;;;;;;;5.63;4.30;;;19.40;67.80;;;;;;5048139;28;43938;-71